Time;durP1;ratioP1;P1;durP2;ratioP2;P2;SDS_P1;SDS_P2;PMS_P1;PMS_P2;Temp;Humidity;BMP_temperature;BMP_pressure;BME280_temperature;BME280_humidity;BME280_pressure;Samples;Min_cycle;Max_cycle;Signal;HPM_P1;HPM_P2
2022/07/21 00:02:16;;;;;;;4.20;2.00;;;;;;;15.59;58.70;99481.54;109179;1277;22542;-61
2022/07/21 00:04:43;;;;;;;5.80;1.30;;;;;;;15.57;58.70;99481.86;109386;1274;23476;-60
2022/07/21 00:07:10;;;;;;;5.10;1.80;;;;;;;15.54;58.77;99483.89;109173;1275;138407;-60
2022/07/21 00:09:36;;;;;;;3.40;2.10;;;;;;;15.50;58.91;99479.74;109286;1275;22518;-60
2022/07/21 00:12:04;;;;;;;6.80;2.20;;;;;;;15.46;59.09;99476.05;109234;1274;139128;-60
2022/07/21 00:14:31;;;;;;;7.20;1.70;;;;;;;15.42;59.23;99476.71;109272;1276;22622;-60
2022/07/21 00:16:58;;;;;;;5.80;1.90;;;;;;;15.39;59.38;99475.25;109224;1274;23473;-62
2022/07/21 00:19:25;;;;;;;4.90;2.10;;;;;;;15.35;59.57;99479.41;109114;1274;137460;-60
2022/07/21 00:21:51;;;;;;;5.60;2.50;;;;;;;15.32;59.73;99480.92;109242;1274;23263;-60
2022/07/21 00:24:18;;;;;;;3.70;1.90;;;;;;;15.30;59.86;99480.79;109097;1277;138574;-61
2022/07/21 00:26:45;;;;;;;5.50;1.80;;;;;;;15.23;60.02;99481.73;109320;1274;22600;-60
2022/07/21 00:29:12;;;;;;;8.80;2.20;;;;;;;15.15;60.25;99485.64;109331;1274;22447;-60
2022/07/21 00:31:39;;;;;;;5.10;2.10;;;;;;;15.09;60.49;99486.05;109188;1273;139327;-60
2022/07/21 00:34:06;;;;;;;4.50;2.30;;;;;;;15.05;60.67;99482.55;107174;1274;24130;-59
2022/07/21 00:36:32;;;;;;;7.60;2.20;;;;;;;15.00;60.84;99482.77;104938;1275;137479;-59
2022/07/21 00:38:59;;;;;;;9.10;2.40;;;;;;;14.96;60.90;99478.02;105037;1273;26538;-60
2022/07/21 00:41:26;;;;;;;6.80;2.20;;;;;;;14.95;61.00;99483.03;104897;1273;22586;-58
2022/07/21 00:43:53;;;;;;;3.20;2.20;;;;;;;14.95;60.88;99484.63;104886;1277;137705;-59
2022/07/21 00:46:20;;;;;;;9.00;2.30;;;;;;;14.92;61.04;99482.17;104983;1275;24302;-60
2022/07/21 00:48:47;;;;;;;4.30;2.20;;;;;;;14.90;61.21;99478.18;104917;1274;139224;-60
2022/07/21 00:51:15;;;;;;;6.90;1.90;;;;;;;14.89;61.16;99480.77;104819;1278;23039;-59
2022/07/21 00:53:41;;;;;;;3.60;2.10;;;;;;;14.87;61.27;99476.61;104853;1274;138283;-59
2022/07/21 00:56:08;;;;;;;7.50;2.20;;;;;;;14.83;61.40;99479.85;105136;1274;22695;-60
2022/07/21 00:58:35;;;;;;;4.30;2.40;;;;;;;14.80;61.57;99481.30;104930;1275;24275;-59
2022/07/21 01:01:02;;;;;;;5.60;2.10;;;;;;;14.79;61.54;99480.37;104869;1274;138372;-59
2022/07/21 01:03:29;;;;;;;8.60;2.50;;;;;;;14.78;61.56;99478.61;105052;1275;26607;-60
2022/07/21 01:05:57;;;;;;;2.30;1.70;;;;;;;14.78;61.64;99482.02;104937;1275;138100;-60
2022/07/21 01:08:24;;;;;;;4.30;1.70;;;;;;;14.77;61.68;99480.42;104895;1277;23223;-60
2022/07/21 01:10:51;;;;;;;2.30;1.70;;;;;;;14.77;61.79;99481.30;105051;1275;24082;-60
2022/07/21 01:13:18;;;;;;;5.10;1.90;;;;;;;14.77;61.74;99484.16;104799;1274;138621;-61
2022/07/21 01:15:44;;;;;;;4.50;1.80;;;;;;;14.75;61.82;99486.54;104828;1274;24237;-62
2022/07/21 01:18:11;;;;;;;3.70;1.90;;;;;;;14.72;61.88;99485.40;104903;1274;139076;-60
2022/07/21 01:20:38;;;;;;;5.40;1.60;;;;;;;14.72;61.93;99483.04;104918;1274;24234;-59
2022/07/21 01:23:05;;;;;;;2.20;1.50;;;;;;;14.73;62.00;99481.28;104699;1278;25398;-59
2022/07/21 01:25:32;;;;;;;6.30;1.70;;;;;;;14.71;61.98;99475.55;104957;1274;137748;-59
2022/07/21 01:27:59;;;;;;;2.60;1.80;;;;;;;14.67;62.04;99475.58;105037;1274;22587;-58
2022/07/21 01:30:25;;;;;;;4.20;1.80;;;;;;;14.63;62.16;99479.45;104835;1275;138001;-59
2022/07/21 01:32:52;;;;;;;4.10;2.10;;;;;;;14.60;62.42;99472.89;105062;1275;22699;-59
2022/07/21 01:35:19;;;;;;;11.30;3.00;;;;;;;14.61;62.44;99471.73;105164;1274;25488;-59
2022/07/21 01:37:47;;;;;;;2.40;1.40;;;;;;;14.62;62.51;99473.14;104916;1275;139396;-59
2022/07/21 01:43:00;;;;;;;3.40;1.80;;;;;;;14.64;62.47;99470.39;104878;1273;139754;-59
2022/07/21 01:45:28;;;;;;;4.80;1.90;;;;;;;14.64;62.49;99466.66;105054;1274;25031;-59
2022/07/21 01:47:55;;;;;;;4.60;1.50;;;;;;;14.63;62.51;99466.61;104890;1274;138290;-59
2022/07/21 01:50:26;;;;;;;3.80;1.50;;;;;;;14.64;62.67;99468.58;104984;1276;25333;-58
2022/07/21 01:52:55;;;;;;;3.90;1.90;;;;;;;14.63;62.54;99466.61;109262;1274;22451;-59
2022/07/21 01:55:23;;;;;;;3.50;2.00;;;;;;;14.62;62.69;99459.16;109328;1273;137515;-59
2022/07/21 01:57:50;;;;;;;3.50;1.90;;;;;;;14.62;62.99;99462.61;109433;1273;22432;-59
2022/07/21 02:00:17;;;;;;;2.20;1.40;;;;;;;14.63;63.16;99460.36;109313;1274;137560;-58
2022/07/21 02:02:43;;;;;;;3.50;1.90;;;;;;;14.62;62.97;99460.48;109481;1274;23271;-59
2022/07/21 02:05:10;;;;;;;3.30;1.60;;;;;;;14.62;63.16;99459.54;109393;1274;23261;-59
2022/07/21 02:07:37;;;;;;;2.30;1.60;;;;;;;14.61;63.09;99457.19;109226;1273;138521;-59
2022/07/21 02:10:04;;;;;;;5.90;2.00;;;;;;;14.60;63.16;99454.12;109396;1274;24779;-59
2022/07/21 02:12:31;;;;;;;7.00;2.10;;;;;;;14.58;63.07;99454.38;109220;1273;137505;-59
2022/07/21 02:14:58;;;;;;;8.30;2.30;;;;;;;14.55;63.19;99454.06;109326;1274;22485;-59
2022/07/21 02:17:25;;;;;;;7.80;1.80;;;;;;;14.55;63.12;99454.40;109309;1273;22452;-59
2022/07/21 02:19:51;;;;;;;3.40;1.70;;;;;;;14.55;63.44;99457.80;109312;1274;138047;-59
2022/07/21 02:22:18;;;;;;;2.20;1.50;;;;;;;14.57;63.27;99457.85;109424;1274;22447;-59
2022/07/21 02:24:45;;;;;;;2.20;1.60;;;;;;;14.57;63.38;99455.14;109354;1274;140089;-59
2022/07/21 02:27:12;;;;;;;1.50;1.40;;;;;;;14.59;63.64;99455.06;109368;1274;23655;-59
2022/07/21 02:29:39;;;;;;;3.60;1.60;;;;;;;14.58;63.96;99451.02;109347;1274;138667;-60
2022/07/21 02:32:06;;;;;;;8.90;1.90;;;;;;;14.57;64.22;99453.49;109452;1274;22428;-59
2022/07/21 02:34:32;;;;;;;6.20;2.00;;;;;;;14.53;64.34;99452.98;109427;1273;22476;-59
2022/07/21 02:36:59;;;;;;;3.10;2.00;;;;;;;14.50;64.39;99446.42;109322;1274;138591;-56
2022/07/21 02:39:26;;;;;;;5.50;2.80;;;;;;;14.46;64.72;99447.21;109397;1274;23070;-56
2022/07/21 02:41:53;;;;;;;8.30;2.50;;;;;;;14.44;64.84;99448.36;109371;1274;138397;-56
2022/07/21 02:44:20;;;;;;;3.40;2.20;;;;;;;14.44;65.06;99445.36;109478;1274;22255;-55
2022/07/21 02:46:46;;;;;;;7.40;2.70;;;;;;;14.42;65.05;99451.64;109418;1272;23141;-55
2022/07/21 02:49:13;;;;;;;7.60;3.30;;;;;;;14.38;65.27;99447.41;109211;1273;138375;-55
2022/07/21 02:51:40;;;;;;;6.90;2.50;;;;;;;14.35;65.44;99447.86;109280;1274;22510;-55
2022/07/21 02:54:09;;;;;;;5.00;2.60;;;;;;;14.33;65.63;99444.20;109145;1274;138313;-55
2022/07/21 02:56:36;;;;;;;4.70;2.40;;;;;;;14.30;65.80;99444.77;109304;1273;22434;-55
2022/07/21 02:59:03;;;;;;;3.40;2.40;;;;;;;14.29;65.95;99441.21;109229;1273;23511;-56
2022/07/21 03:01:29;;;;;;;9.70;3.20;;;;;;;14.28;66.02;99435.83;109142;1273;137862;-55
2022/07/21 03:03:56;;;;;;;11.70;3.10;;;;;;;14.26;66.11;99437.63;109260;1274;22459;-56
2022/07/21 03:06:23;;;;;;;11.60;2.20;;;;;;;14.24;66.46;99436.33;109202;1274;140678;-56
2022/07/21 03:08:50;;;;;;;7.30;2.70;;;;;;;14.23;66.49;99445.59;109300;1273;22430;-56
2022/07/21 03:11:18;;;;;;;4.60;2.30;;;;;;;14.24;66.53;99444.27;109356;1273;22519;-56
2022/07/21 03:13:44;;;;;;;7.00;3.40;;;;;;;14.26;66.55;99438.68;109197;1273;138561;-56
2022/07/21 03:16:11;;;;;;;8.90;4.70;;;;;;;14.28;66.36;99436.58;109359;1273;23584;-56
2022/07/21 03:18:38;;;;;;;8.60;3.70;;;;;;;14.31;66.46;99428.54;109191;1274;138183;-56
2022/07/21 03:21:05;;;;;;;10.40;4.00;;;;;;;14.34;66.52;99428.24;109214;1274;23155;-57
2022/07/21 03:23:32;;;;;;;7.80;3.90;;;;;;;14.36;66.65;99431.19;109332;1273;22451;-56
2022/07/21 03:25:59;;;;;;;15.30;5.20;;;;;;;14.39;66.44;99433.88;109146;1274;138017;-58
2022/07/21 03:28:26;;;;;;;9.40;3.50;;;;;;;14.41;66.48;99431.48;109293;1273;23221;-57
2022/07/21 03:30:52;;;;;;;6.80;3.00;;;;;;;14.45;66.26;99428.73;109220;1273;138056;-58
2022/07/21 03:33:19;;;;;;;7.90;3.10;;;;;;;14.48;66.10;99431.41;109376;1273;22520;-58
2022/07/21 03:35:46;;;;;;;4.80;2.00;;;;;;;14.52;65.93;99431.34;109187;1273;137973;-58
2022/07/21 03:38:13;;;;;;;7.10;2.00;;;;;;;14.56;65.57;99443.91;109302;1273;23189;-57
2022/07/21 03:40:40;;;;;;;5.60;1.70;;;;;;;14.58;65.34;99434.46;109277;1273;23800;-57
2022/07/21 03:43:08;;;;;;;3.00;2.10;;;;;;;14.59;65.27;99432.03;109244;1273;138751;-58
2022/07/21 03:45:35;;;;;;;6.40;2.10;;;;;;;14.62;65.34;99435.25;109180;1274;22455;-57
2022/07/21 03:48:03;;;;;;;6.00;2.30;;;;;;;14.65;65.31;99431.66;109301;1274;138497;-57
2022/07/21 03:50:30;;;;;;;12.50;2.10;;;;;;;14.70;65.14;99431.56;109368;1273;23536;-57
2022/07/21 03:52:57;;;;;;;3.40;1.60;;;;;;;14.75;65.09;99430.80;109371;1274;22429;-57
2022/07/21 03:55:24;;;;;;;5.30;2.10;;;;;;;14.81;64.96;99433.89;109149;1274;138128;-57
2022/07/21 03:57:55;;;;;;;2.10;1.70;;;;;;;14.88;65.02;99429.88;109352;1273;22461;-57
2022/07/21 04:00:27;;;;;;;4.20;1.70;;;;;;;14.95;65.04;99422.79;109175;1273;139079;-58
2022/07/21 04:02:54;;;;;;;10.50;1.90;;;;;;;15.03;64.98;99418.86;109365;1273;22457;-58
2022/07/21 04:05:21;;;;;;;4.70;2.00;;;;;;;15.09;64.78;99418.70;109423;1273;22454;-57
2022/07/21 04:07:48;;;;;;;4.40;1.50;;;;;;;15.14;64.60;99416.55;109198;1274;137903;-58
2022/07/21 04:10:18;;;;;;;5.90;2.20;;;;;;;15.22;64.45;99421.08;109371;1274;22470;-57
2022/07/21 04:12:45;;;;;;;8.80;2.40;;;;;;;15.28;64.18;99417.08;109206;1273;137997;-58
2022/07/21 04:15:12;;;;;;;8.40;1.60;;;;;;;15.33;63.95;99417.77;109229;1274;22477;-58
2022/07/21 04:17:39;;;;;;;7.50;2.30;;;;;;;15.37;63.98;99414.83;109187;1273;137412;-59
2022/07/21 04:20:08;;;;;;;6.30;2.10;;;;;;;15.41;63.97;99415.92;109371;1273;23250;-58
2022/07/21 04:22:35;;;;;;;3.20;1.80;;;;;;;15.46;63.92;99414.10;109261;1273;22452;-58
2022/07/21 04:25:04;;;;;;;6.70;2.00;;;;;;;15.51;63.60;99417.34;109173;1273;137374;-58
2022/07/21 04:27:31;;;;;;;5.80;1.60;;;;;;;15.52;63.60;99413.34;109289;1273;22424;-58
2022/07/21 04:29:57;;;;;;;2.40;1.80;;;;;;;15.59;63.56;99418.98;109284;1273;138035;-58
2022/07/21 04:32:24;;;;;;;4.80;2.30;;;;;;;15.63;63.28;99416.29;109240;1274;22512;-59
2022/07/21 04:34:51;;;;;;;5.90;1.70;;;;;;;15.67;63.28;99409.00;109240;1274;22481;-59
2022/07/21 04:37:18;;;;;;;6.60;1.90;;;;;;;15.72;63.34;99409.80;109259;1273;138471;-58
2022/07/21 04:39:44;;;;;;;5.00;2.50;;;;;;;15.78;63.09;99414.95;109396;1273;22514;-58
2022/07/21 04:42:18;;;;;;;17.60;3.30;;;;;;;15.83;62.85;99422.91;109168;1273;138667;-58
2022/07/21 04:44:45;;;;;;;7.40;2.70;;;;;;;15.88;62.49;99424.58;109171;1276;22507;-58
2022/07/21 04:47:12;;;;;;;8.90;2.70;;;;;;;15.92;62.49;99423.99;109236;1274;23987;-58
2022/07/21 04:49:39;;;;;;;6.20;1.70;;;;;;;15.97;62.56;99423.77;109110;1274;138081;-58
2022/07/21 04:52:06;;;;;;;11.80;3.00;;;;;;;16.02;62.42;99417.44;109264;1273;23604;-59
2022/07/21 04:54:32;;;;;;;17.30;3.80;;;;;;;16.07;62.36;99417.08;109208;1273;137611;-58
2022/07/21 04:57:02;;;;;;;5.20;2.40;;;;;;;16.13;62.39;99416.45;109245;1274;23223;-59
2022/07/21 04:59:29;;;;;;;6.20;2.30;;;;;;;16.21;62.12;99422.16;109230;1274;22496;-59
2022/07/21 05:01:57;;;;;;;4.50;2.20;;;;;;;16.26;62.02;99420.71;109173;1273;138432;-58
2022/07/21 05:04:24;;;;;;;6.80;2.30;;;;;;;16.32;61.70;99423.64;109279;1273;22421;-58
2022/07/21 05:06:51;;;;;;;10.30;2.60;;;;;;;16.38;61.57;99423.51;109234;1273;137788;-59
2022/07/21 05:09:17;;;;;;;9.80;2.70;;;;;;;16.42;61.69;99422.89;109243;1273;22460;-58
2022/07/21 05:11:44;;;;;;;7.30;2.20;;;;;;;16.49;61.74;99423.52;109273;1273;139270;-58
2022/07/21 05:14:11;;;;;;;2.70;1.70;;;;;;;16.56;61.60;99422.72;109241;1273;22477;-58
2022/07/21 05:16:41;;;;;;;5.60;1.90;;;;;;;16.64;61.42;99420.19;109158;1276;22727;-58
2022/07/21 05:19:09;;;;;;;1.80;1.30;;;;;;;16.72;61.31;99417.98;109152;1273;139143;-58
2022/07/21 05:21:36;;;;;;;4.40;2.10;;;;;;;16.87;61.18;99418.16;109253;1273;23425;-58
2022/07/21 05:24:03;;;;;;;4.20;1.80;;;;;;;17.06;60.93;99418.53;109177;1273;137683;-57
2022/07/21 05:26:29;;;;;;;7.50;1.80;;;;;;;17.34;60.58;99412.01;109226;1274;23104;-58
2022/07/21 05:28:56;;;;;;;3.10;2.10;;;;;;;17.67;59.70;99405.17;109272;1274;23431;-58
2022/07/21 05:31:23;;;;;;;2.90;1.50;;;;;;;18.07;58.77;99407.40;109245;1273;138409;-57
2022/07/21 05:33:50;;;;;;;7.60;2.30;;;;;;;18.50;57.92;99407.28;109294;1273;22456;-58
2022/07/21 05:36:18;;;;;;;4.60;2.30;;;;;;;18.94;56.60;99402.38;109073;1274;139116;-57
2022/07/21 05:38:46;;;;;;;11.90;2.30;;;;;;;19.34;56.11;99409.66;109405;1273;22556;-58
2022/07/21 05:41:13;;;;;;;3.00;1.50;;;;;;;19.77;54.87;99411.98;109482;1273;22373;-57
2022/07/21 05:43:40;;;;;;;4.60;1.70;;;;;;;20.18;53.75;99402.79;109202;1273;138314;-58
2022/07/21 05:46:06;;;;;;;6.10;2.30;;;;;;;20.56;52.82;99404.64;109340;1273;22447;-57
2022/07/21 05:48:34;;;;;;;8.20;1.90;;;;;;;20.88;52.27;99399.90;109148;1273;137628;-58
2022/07/21 05:51:00;;;;;;;6.20;2.10;;;;;;;21.22;51.27;99391.41;109268;1274;22544;-58
2022/07/21 05:53:27;;;;;;;4.30;1.90;;;;;;;21.54;50.71;99393.86;109265;1273;22462;-56
2022/07/21 05:55:54;;;;;;;3.30;1.40;;;;;;;21.89;49.89;99386.33;109275;1273;137584;-56
2022/07/21 05:58:23;;;;;;;4.40;1.40;;;;;;;22.19;48.76;99390.03;109329;1273;22453;-57
2022/07/21 06:01:09;;;;;;;4.30;1.40;;;;;;;22.38;48.24;99389.65;109218;1274;137425;-58
2022/07/21 06:03:44;;;;;;;5.80;2.20;;;;;;;22.49;47.79;99393.55;109221;1274;22554;-57
2022/07/21 06:06:13;;;;;;;2.80;1.30;;;;;;;22.43;47.98;99390.06;109141;1274;137731;-57
2022/07/21 06:08:41;;;;;;;3.10;1.40;;;;;;;22.42;47.83;99390.20;109278;1274;22449;-57
2022/07/21 06:11:08;;;;;;;7.50;1.60;;;;;;;22.32;47.10;99389.50;109257;1274;22715;-57
2022/07/21 06:13:35;;;;;;;4.50;1.70;;;;;;;22.07;47.43;99390.86;109062;1274;137921;-57
2022/07/21 06:16:02;;;;;;;11.00;1.80;;;;;;;21.85;47.74;99385.50;107682;1274;22595;-56
2022/07/21 06:18:29;;;;;;;4.00;1.80;;;;;;;21.62;48.39;99389.09;104966;1275;138670;-57
2022/07/21 06:20:56;;;;;;;9.20;2.60;;;;;;;21.44;48.41;99389.58;105037;1274;23081;-57
2022/07/21 06:23:23;;;;;;;6.30;2.20;;;;;;;21.25;48.84;99392.16;104922;1277;24217;-56
2022/07/21 06:25:51;;;;;;;6.20;1.80;;;;;;;21.01;49.08;99385.43;104927;1274;137680;-57
2022/07/21 06:28:18;;;;;;;10.10;2.00;;;;;;;20.83;49.24;99384.87;104945;1275;22590;-57
2022/07/21 06:30:44;;;;;;;6.10;1.70;;;;;;;20.64;49.84;99388.96;109166;1274;138250;-57
2022/07/21 06:33:11;;;;;;;8.00;1.40;;;;;;;20.54;50.41;99388.39;109217;1273;22453;-58
2022/07/21 06:35:38;;;;;;;5.80;1.60;;;;;;;20.45;51.35;99385.02;109037;1274;23074;-57
2022/07/21 06:38:05;;;;;;;7.20;1.50;;;;;;;20.42;50.79;99388.17;109080;1276;138607;-57
2022/07/21 06:40:38;;;;;;;3.60;1.90;;;;;;;20.34;50.75;99386.85;109219;1274;22483;-57
2022/07/21 06:43:05;;;;;;;3.70;1.50;;;;;;;20.27;51.01;99387.23;109144;1275;138331;-57
2022/07/21 06:45:51;;;;;;;4.40;1.60;;;;;;;20.20;51.37;99377.89;109234;1274;22687;-57
2022/07/21 06:48:18;;;;;;;2.00;1.50;;;;;;;20.18;51.66;99373.92;109115;1276;138621;-58
2022/07/21 06:50:45;;;;;;;5.60;1.10;;;;;;;20.19;51.92;99370.97;109235;1274;23437;-59
2022/07/21 06:53:12;;;;;;;4.30;1.30;;;;;;;20.20;51.99;99372.36;109206;1274;23311;-58
2022/07/21 06:55:40;;;;;;;3.30;1.40;;;;;;;20.20;50.81;99370.46;109098;1274;137881;-57
2022/07/21 06:58:10;;;;;;;5.70;1.40;;;;;;;20.19;50.82;99373.41;109153;1273;22463;-57
2022/07/21 07:00:36;;;;;;;6.80;1.20;;;;;;;20.18;50.56;99368.59;109138;1274;137647;-58
2022/07/21 07:03:05;;;;;;;2.30;1.20;;;;;;;20.18;50.44;99365.30;109242;1274;22482;-57
2022/07/21 07:05:32;;;;;;;5.90;1.20;;;;;;;20.16;50.33;99367.55;109168;1275;22475;-57
2022/07/21 07:07:59;;;;;;;3.10;1.00;;;;;;;20.17;50.58;99360.73;109199;1274;137394;-58
2022/07/21 07:10:26;;;;;;;1.40;1.00;;;;;;;20.21;50.37;99364.33;109239;1273;22453;-58
2022/07/21 07:12:54;;;;;;;2.90;1.20;;;;;;;20.22;50.15;99360.20;109153;1273;138209;-58
2022/07/21 07:15:41;;;;;;;3.60;1.30;;;;;;;20.21;50.42;99356.44;109212;1274;22424;-59
2022/07/21 07:18:08;;;;;;;2.80;1.50;;;;;;;20.20;50.81;99355.21;109205;1274;137605;-58
2022/07/21 07:20:35;;;;;;;7.40;1.70;;;;;;;20.23;50.90;99352.88;109339;1273;22483;-58
2022/07/21 07:23:02;;;;;;;2.30;1.30;;;;;;;20.27;51.05;99355.14;109175;1275;22648;-59
2022/07/21 07:25:28;;;;;;;11.10;1.40;;;;;;;20.31;51.23;99356.05;109168;1274;137352;-57
2022/07/21 07:27:57;;;;;;;5.90;2.10;;;;;;;20.35;51.02;99351.94;109211;1273;22519;-57
2022/07/21 07:30:24;;;;;;;4.40;1.00;;;;;;;20.39;51.51;99347.51;109074;1273;138060;-57
2022/07/21 07:32:51;;;;;;;3.80;1.30;;;;;;;20.45;50.48;99355.30;109219;1274;22545;-58
2022/07/21 07:35:18;;;;;;;5.50;1.60;;;;;;;20.52;50.66;99352.89;109095;1277;22455;-59
2022/07/21 07:37:45;;;;;;;8.60;1.00;;;;;;;20.59;50.88;99342.05;109057;1274;137942;-59
2022/07/21 07:40:14;;;;;;;3.90;1.20;;;;;;;20.66;49.84;99341.11;109169;1274;22526;-56
2022/07/21 07:42:41;;;;;;;2.30;1.10;;;;;;;20.72;47.92;99344.23;109185;1273;137846;-58
2022/07/21 07:45:08;;;;;;;3.80;1.40;;;;;;;20.74;48.14;99343.45;109013;1273;442139;-57
2022/07/21 07:49:17;;;;;;;2.20;1.30;;;;;;;20.79;48.10;99340.65;101630;1310;546055;-58
2022/07/21 07:51:44;;;;;;;1.80;1.60;;;;;;;20.80;48.36;99341.38;104129;1284;22846;-59
2022/07/21 07:54:11;;;;;;;2.40;1.40;;;;;;;20.84;47.63;99339.73;103996;1284;136719;-59
2022/07/21 07:56:38;;;;;;;6.10;3.00;;;;;;;20.85;47.59;99339.55;104100;1285;22861;-56
2022/07/21 07:59:05;;;;;;;2.90;1.40;;;;;;;20.87;48.13;99341.85;104163;1287;25494;-58
2022/07/21 08:01:32;;;;;;;2.60;1.00;;;;;;;20.92;47.70;99342.77;103943;1285;137881;-57
2022/07/21 08:03:59;;;;;;;1.30;1.00;;;;;;;20.96;47.24;99337.54;104104;1283;269551;-57
2022/07/21 08:06:26;;;;;;;1.20;1.00;;;;;;;20.95;48.49;99333.80;104197;1282;138448;-60
2022/07/21 08:08:52;;;;;;;0.90;0.90;;;;;;;20.99;48.01;99335.61;104311;1285;22589;-57
2022/07/21 08:11:19;;;;;;;5.20;1.00;;;;;;;21.01;47.37;99331.54;104294;1283;23503;-58
2022/07/21 08:13:46;;;;;;;4.70;2.50;;;;;;;21.03;47.76;99327.27;104144;1283;137079;-58
2022/07/21 08:16:15;;;;;;;5.90;1.80;;;;;;;21.08;48.46;99322.24;104234;1283;22573;-58
2022/07/21 08:18:42;;;;;;;3.80;1.20;;;;;;;21.16;48.32;99320.20;108312;1282;137313;-56
2022/07/21 08:21:14;;;;;;;7.60;1.40;;;;;;;21.22;47.75;99316.80;108436;1284;22491;-58
2022/07/21 08:23:41;;;;;;;4.70;2.20;;;;;;;21.23;47.64;99309.03;108426;1283;23213;-59
2022/07/21 08:26:08;;;;;;;3.60;1.10;;;;;;;21.25;47.74;99308.86;108391;1282;136792;-57
2022/07/21 08:28:35;;;;;;;3.40;2.20;;;;;;;21.27;47.46;99309.18;108457;1284;23157;-57
2022/07/21 08:31:01;;;;;;;3.00;1.30;;;;;;;21.28;46.49;99310.98;108373;1284;137160;-58
2022/07/21 08:33:28;;;;;;;9.00;1.50;;;;;;;21.29;46.71;99303.95;108467;1283;22474;-57
2022/07/21 08:35:55;;;;;;;10.60;1.90;;;;;;;21.33;46.86;99306.12;108364;1283;136987;-58
2022/07/21 08:38:23;;;;;;;5.20;1.30;;;;;;;21.40;46.53;99296.00;108450;1282;23206;-57
2022/07/21 08:40:49;;;;;;;7.60;1.30;;;;;;;21.46;46.12;99300.48;108487;1284;22430;-56
2022/07/21 08:43:16;;;;;;;7.00;1.50;;;;;;;21.51;46.29;99297.23;108352;1284;139062;-58
2022/07/21 08:45:43;;;;;;;3.50;1.30;;;;;;;21.52;46.25;99288.04;108466;1284;22470;-57
2022/07/21 08:48:10;;;;;;;4.60;2.10;;;;;;;21.53;46.34;99284.77;108349;1282;138903;-59
2022/07/21 08:50:38;;;;;;;6.60;1.40;;;;;;;21.52;45.70;99292.52;108683;1281;22563;-58
2022/07/21 08:53:05;;;;;;;2.50;1.20;;;;;;;21.50;45.09;99292.23;108885;1279;22463;-59
2022/07/21 08:55:33;;;;;;;6.90;1.30;;;;;;;21.47;45.13;99283.48;108663;1279;139037;-58
2022/07/21 08:58:00;;;;;;;3.40;1.30;;;;;;;21.46;45.75;99281.40;108790;1281;22464;-59
2022/07/21 09:00:34;;;;;;;17.80;1.90;;;;;;;21.48;46.95;99278.14;108668;1280;138720;-58
2022/07/21 09:03:29;;;;;;;3.80;1.80;;;;;;;21.51;46.87;99277.46;108972;1279;22472;-57
2022/07/21 09:06:14;;;;;;;4.80;1.30;;;;;;;21.61;47.05;99277.05;108750;1280;137978;-58
2022/07/21 09:08:49;;;;;;;1.70;1.20;;;;;;;21.77;47.14;99270.77;108824;1281;22476;-58
2022/07/21 09:11:19;;;;;;;4.90;1.20;;;;;;;21.88;46.97;99270.09;108706;1281;22340;-57
2022/07/21 09:13:51;;;;;;;8.00;1.70;;;;;;;21.95;46.59;99261.54;108738;1279;137969;-58
2022/07/21 09:16:39;;;;;;;6.20;1.60;;;;;;;22.03;46.94;99261.94;108804;1280;22397;-57
2022/07/21 09:19:06;;;;;;;5.60;1.40;;;;;;;22.12;46.17;99267.36;107835;1287;138357;-58
2022/07/21 09:21:34;;;;;;;2.30;1.30;;;;;;;22.17;45.77;99264.94;107853;1287;22462;-58
2022/07/21 09:24:14;;;;;;;3.00;1.00;;;;;;;22.20;45.49;99263.71;107776;1287;138294;-58
2022/07/21 09:26:59;;;;;;;5.60;1.40;;;;;;;22.23;45.66;99257.13;107774;1287;22499;-58
2022/07/21 09:29:26;;;;;;;4.60;1.30;;;;;;;22.27;45.74;99254.90;107927;1287;22544;-59
2022/07/21 09:31:53;;;;;;;8.30;1.30;;;;;;;22.32;45.85;99249.21;107736;1286;139005;-58
2022/07/21 09:34:21;;;;;;;4.20;1.60;;;;;;;22.39;45.09;99251.10;108034;1287;22579;-59
2022/07/21 09:36:55;;;;;;;6.00;1.70;;;;;;;22.43;45.72;99245.70;107924;1287;139016;-58
2022/07/21 09:39:44;;;;;;;1.90;1.50;;;;;;;22.48;45.42;99242.48;107985;1287;23656;-58
2022/07/21 09:42:18;;;;;;;5.80;1.50;;;;;;;22.55;45.05;99243.34;107825;1287;137815;-58
2022/07/21 09:44:49;;;;;;;5.00;1.40;;;;;;;22.61;44.70;99239.29;107980;1287;22488;-58
2022/07/21 09:47:18;;;;;;;6.40;1.30;;;;;;;22.67;44.84;99238.36;108056;1286;23095;-58
2022/07/21 09:49:45;;;;;;;2.40;1.40;;;;;;;22.72;44.56;99240.44;108085;1286;137262;-58
2022/07/21 09:52:36;;;;;;;3.10;1.30;;;;;;;22.77;44.59;99247.84;108568;1283;22437;-58
2022/07/21 09:55:08;;;;;;;6.40;1.80;;;;;;;22.78;44.16;99242.13;108487;1282;137502;-59
2022/07/21 09:57:35;;;;;;;4.80;1.30;;;;;;;22.74;44.21;99231.39;109249;1275;23180;-58
2022/07/21 10:00:15;;;;;;;7.20;1.20;;;;;;;22.69;44.38;99228.27;109117;1274;137140;-58
2022/07/21 10:02:45;;;;;;;7.10;1.60;;;;;;;22.65;44.43;99225.42;108974;1277;22493;-58
2022/07/21 10:05:15;;;;;;;4.20;1.70;;;;;;;22.64;44.68;99223.20;109194;1274;22408;-57
2022/07/21 10:07:43;;;;;;;4.00;1.50;;;;;;;22.62;45.07;99223.34;109116;1274;137787;-58
2022/07/21 10:10:11;;;;;;;6.10;1.60;;;;;;;22.63;44.81;99222.54;109207;1274;22474;-58
2022/07/21 10:12:38;;;;;;;9.20;2.10;;;;;;;22.68;44.73;99218.31;109118;1277;138130;-58
2022/07/21 10:15:06;;;;;;;2.60;1.40;;;;;;;22.71;45.01;99222.49;109294;1274;22628;-58
2022/07/21 10:17:32;;;;;;;5.50;1.60;;;;;;;22.79;45.28;99209.74;109278;1274;23261;-56
2022/07/21 10:20:27;;;;;;;5.80;1.90;;;;;;;22.88;44.97;99212.13;109162;1274;137473;-58
2022/07/21 10:23:09;;;;;;;5.30;1.80;;;;;;;22.90;44.68;99215.23;109067;1277;22503;-57
2022/07/21 10:25:46;;;;;;;7.50;1.60;;;;;;;22.90;44.85;99208.54;109156;1274;137183;-56
2022/07/21 10:28:13;;;;;;;16.00;2.40;;;;;;;22.94;45.50;99204.30;109221;1274;22463;-59
2022/07/21 10:30:44;;;;;;;3.10;1.60;;;;;;;23.00;45.19;99214.25;109065;1274;138601;-57
2022/07/21 10:33:12;;;;;;;2.40;1.70;;;;;;;23.02;45.00;99217.27;109231;1274;24316;-58
2022/07/21 10:35:40;;;;;;;4.10;1.80;;;;;;;23.02;44.76;99213.44;109243;1274;22562;-58
2022/07/21 10:38:29;;;;;;;6.70;1.80;;;;;;;23.04;44.97;99214.23;109032;1275;22468;-58
2022/07/21 10:40:57;;;;;;;3.10;1.60;;;;;;;23.10;44.90;99212.16;109221;1274;22454;-58
2022/07/21 10:43:28;;;;;;;5.80;1.50;;;;;;;23.13;45.22;99212.36;109229;1274;137151;-57
2022/07/21 10:45:55;;;;;;;4.90;1.90;;;;;;;23.16;44.87;99216.90;109283;1274;22590;-58
2022/07/21 10:48:39;;;;;;;2.30;1.50;;;;;;;23.15;45.01;99211.97;109146;1274;137970;-57
2022/07/21 10:51:08;;;;;;;5.10;1.70;;;;;;;23.16;45.15;99197.70;109290;1274;23272;-58
2022/07/21 10:53:35;;;;;;;4.50;1.70;;;;;;;23.22;46.26;99199.14;109245;1274;22537;-57
2022/07/21 10:56:01;;;;;;;2.30;1.70;;;;;;;23.31;45.93;99198.08;109122;1275;137205;-57
2022/07/21 10:58:38;;;;;;;5.10;1.70;;;;;;;23.35;45.16;99199.48;109218;1274;22578;-58
2022/07/21 11:01:15;;;;;;;13.80;2.90;;;;;;;23.32;44.58;99199.92;109213;1274;137020;-60
2022/07/21 11:03:47;;;;;;;3.80;1.70;;;;;;;23.24;44.68;99203.73;109240;1276;22512;-59
2022/07/21 11:06:22;;;;;;;2.30;1.60;;;;;;;23.18;44.94;99207.13;107216;1276;137942;-58
2022/07/21 11:09:04;;;;;;;4.30;2.20;;;;;;;23.18;45.33;99202.52;109309;1274;22516;-58
2022/07/21 11:11:32;;;;;;;6.60;2.30;;;;;;;23.23;45.95;99198.47;109209;1275;22563;-58
2022/07/21 11:13:59;;;;;;;4.70;2.30;;;;;;;23.31;46.04;99200.46;109211;1274;137324;-58
2022/07/21 11:16:38;;;;;;;4.80;2.30;;;;;;;23.41;45.98;99200.11;109243;1276;23282;-58
2022/07/21 11:19:06;;;;;;;5.80;2.50;;;;;;;23.53;45.77;99189.73;109052;1275;138168;-58
2022/07/21 11:21:32;;;;;;;3.60;2.60;;;;;;;23.67;45.54;99193.92;109248;1274;22472;-57
2022/07/21 11:23:59;;;;;;;4.30;2.50;;;;;;;23.80;44.91;99181.13;109088;1276;139119;-57
2022/07/21 11:26:26;;;;;;;4.50;2.00;;;;;;;23.84;44.59;99178.77;109260;1274;22457;-58
2022/07/21 11:29:04;;;;;;;3.50;2.30;;;;;;;23.79;44.56;99184.05;109282;1274;23750;-57
2022/07/21 11:31:31;;;;;;;8.80;3.30;;;;;;;23.69;44.49;99182.01;108789;1274;138588;-56
2022/07/21 11:33:58;;;;;;;3.80;3.10;;;;;;;23.58;44.98;99177.64;109320;1274;22484;-56